METAR AND TAF INFORMATION
METAR FOR GCGM
ADDS - METARS form results

(1553 UTC 05 August 2020)
Data provider http://aviationweather.gov/metar/data/
 
METAR text: GCGM 051530Z 22008KT 190V250 CAVOK 26/18 Q1015 RMK R09/23006KT 170V280 ARP/21007KT 170V280
Conditions at: GCGM (LA GOMERA ARPT , ES) observed 1530 UTC 05 August 2020
Temperature: 26.0°C (79°F)
Dewpoint: 18.0°C (64°F) [RH = 61%]
Pressure (altimeter): 29.97 inches Hg (1015.0 mb)
Winds: from the SW (220 degrees) at 9 MPH (8 knots; 4.1 m/s)
Visibility: 6 or more miles (10+ km)
Ceiling: ceiling and visibility are OK
Clouds: unknown
Weather: no significant weather observed at this time

METAR text: GCGM 051500Z 21007KT 150V260 CAVOK 25/19 Q1015 RMK R09/18005KT 120V260 ARP/21006KT 180V260
Conditions at: GCGM (LA GOMERA ARPT , ES) observed 1500 UTC 05 August 2020
Temperature: 25.0°C (77°F)
Dewpoint: 19.0°C (66°F) [RH = 69%]
Pressure (altimeter): 29.97 inches Hg (1015.0 mb)
Winds: from the SSW (210 degrees) at 8 MPH (7 knots; 3.6 m/s)
Visibility: 6 or more miles (10+ km)
Ceiling: ceiling and visibility are OK
Clouds: unknown
Weather: no significant weather observed at this time

Forecast for: GCGM (LA GOMERA ARPT , ES)
Text: TAF GCGM 051400Z 0515/0615 21007KT 9999 FEW018 TX27/0614Z TN21/0606Z
Forecast period: 1500 UTC 05 August 2020 to 1500 UTC 06 August 2020
Forecast type: FROM: standard forecast or significant change
Winds: from the SSW (210 degrees) at 8 MPH (7 knots; 3.6 m/s)
Visibility: 6 or more miles 10+ km)
Ceiling: at least 12,000 feet AGL
Clouds: few clouds at 1800 feet AGL
Weather: no significant weather forecast for this period

 AIRPORT MAP

 RUNWAY INFORMATION
Runway 09 Runway length 4921 ft Runway width 98 ft
Runway elevation 716 ft Runway displaced threshold 0 ft Runway heading 81
Runway 27 Runway length 4921 ft Runway width 98 ft
Runway elevation 712 ft Runway displaced threshold 0 ft Runway heading 261

 AIRPORT FREQUENCIES
Type GND Name GND Frequency 121.7 MHZ
Type TWR Name TWR Frequency 118.4 MHZ

 AIRPORT NEAR NAVIGATION AIDS
Type VOR-DME Name La Gomera Frequency 116000 KHZ



Powered by Virtual Airlines Manager [v2.6.2]